OBBI/BAH METAR and TAF weather

Enter ICAO airport designator
Station Type Date Time Source
OBBI METAR 2024/06/15 22:00 UTC NOAA

OBBI 152200Z 09004KT CAVOK 32/27 Q0998 NOSIG


Station Type Date Time Source
OBBI Decoded METAR 2024/06/15 22:00 UTC NOAA

Bahrain International Airport , Bahrain (OBBI) 26-16N 050-39E 2M
Jun 15, 2024 - 06:00 PM EDT / 2024.06.15 2200 UTC
Wind: from the E (090 degrees) at 5 MPH (4 KT):0
Visibility: greater than 7 mile(s):0
Temperature: 89 F (32 C)
Heat index: 105.6 F (40.9 C):1
Dew Point: 80 F (27 C)
Relative Humidity: 74%
Pressure (altimeter): 29.47 in. Hg (0998 hPa)
ob: OBBI 152200Z 09004KT CAVOK 32/27 Q0998 NOSIG
cycle: 22

Station Type Date Time Source
OBBI TAF 2024/06/15 18:24 UTC NOAA